Time;durP1;ratioP1;P1;durP2;ratioP2;P2;SDS_P1;SDS_P2;PMS_P1;PMS_P2;Temp;Humidity;BMP_temperature;BMP_pressure;BME280_temperature;BME280_humidity;BME280_pressure;Samples;Min_cycle;Max_cycle;Signal;HPM_P1;HPM_P2
2022/04/14 00:01:54;;;;;;;26.63;14.90;;;;;;;;;;4957746;28;20515;-73
2022/04/14 00:04:20;;;;;;;20.90;15.33;;;;;;;;;;4958169;28;20487;-74
2022/04/14 00:06:46;;;;;;;20.87;14.87;;;;;;;;;;4958243;28;20454;-74
2022/04/14 00:09:12;;;;;;;20.63;14.73;;;;;;;;;;4958054;28;20420;-73
2022/04/14 00:11:38;;;;;;;18.93;14.53;;;;;;;;;;4957526;28;20799;-75
2022/04/14 00:14:05;;;;;;;25.20;16.77;;;;;;;;;;4957803;28;20398;-74
2022/04/14 00:16:31;;;;;;;19.30;15.30;;;;;;;;;;4957908;28;20512;-75
2022/04/14 00:18:57;;;;;;;21.80;14.00;;;;;;;;;;4957986;28;20496;-73
2022/04/14 00:21:23;;;;;;;20.17;14.70;;;;;;;;;;4957512;28;20436;-74
2022/04/14 00:23:49;;;;;;;24.50;15.97;;;;;;;;;;4957661;28;20464;-73
2022/04/14 00:26:15;;;;;;;23.77;15.30;;;;;;;;;;4972564;28;20447;-74
2022/04/14 00:28:41;;;;;;;22.77;16.13;;;;;;;;;;4972596;28;20452;-73
2022/04/14 00:31:07;;;;;;;19.70;16.07;;;;;;;;;;4957575;28;20440;-75
2022/04/14 00:33:33;;;;;;;20.53;15.20;;;;;;;;;;4972686;28;20485;-72
2022/04/14 00:35:59;;;;;;;30.03;16.57;;;;;;;;;;4957692;28;20906;-73
2022/04/14 00:38:25;;;;;;;25.40;17.47;;;;;;;;;;4957740;28;20409;-75
2022/04/14 00:40:52;;;;;;;25.73;16.53;;;;;;;;;;4957342;28;20787;-74
2022/04/14 00:43:20;;;;;;;23.60;16.17;;;;;;;;;;4957717;28;20472;-74
2022/04/14 00:45:49;;;;;;;22.70;15.60;;;;;;;;;;4957522;28;20424;-75
2022/04/14 00:48:15;;;;;;;22.77;15.40;;;;;;;;;;4972127;28;20957;-75
2022/04/14 00:50:41;;;;;;;22.13;16.57;;;;;;;;;;4957147;28;20906;-75
2022/04/14 00:53:07;;;;;;;23.77;16.23;;;;;;;;;;4957265;28;20448;-75
2022/04/14 00:55:33;;;;;;;23.37;15.73;;;;;;;;;;4957102;28;20447;-74
2022/04/14 00:57:59;;;;;;;18.83;15.53;;;;;;;;;;4957039;28;20402;-75
2022/04/14 01:00:25;;;;;;;27.23;17.00;;;;;;;;;;4971590;28;20437;-73
2022/04/14 01:02:52;;;;;;;26.00;17.93;;;;;;;;;;4957013;28;20807;-72
2022/04/14 01:05:19;;;;;;;28.83;18.33;;;;;;;;;;4957127;28;20455;-72
2022/04/14 01:07:46;;;;;;;24.30;17.50;;;;;;;;;;4957022;28;20499;-75
2022/04/14 01:10:12;;;;;;;24.93;18.87;;;;;;;;;;4956382;28;20395;-75
2022/04/14 01:12:38;;;;;;;21.70;16.20;;;;;;;;;;4956800;28;20569;-73
2022/04/14 01:15:04;;;;;;;27.23;19.30;;;;;;;;;;4956846;28;20421;-74
2022/04/14 01:17:30;;;;;;;21.37;17.60;;;;;;;;;;4956880;28;20442;-75
2022/04/14 01:19:56;;;;;;;29.87;19.13;;;;;;;;;;4956778;28;20401;-75
2022/04/14 01:22:25;;;;;;;28.60;18.07;;;;;;;;;;4956316;28;20451;-75
2022/04/14 01:24:55;;;;;;;26.87;19.63;;;;;;;;;;4956683;28;20500;-76
2022/04/14 01:27:22;;;;;;;30.37;20.07;;;;;;;;;;4956682;28;20408;-73
2022/04/14 01:29:51;;;;;;;25.63;18.00;;;;;;;;;;4956857;28;20753;-74
2022/04/14 01:32:17;;;;;;;27.80;19.40;;;;;;;;;;4956225;28;20436;-75
2022/04/14 01:34:44;;;;;;;27.50;19.07;;;;;;;;;;4956593;28;20422;-73
2022/04/14 01:37:10;;;;;;;24.47;18.70;;;;;;;;;;4956502;28;20467;-75
2022/04/14 01:39:36;;;;;;;35.50;20.47;;;;;;;;;;4956428;28;20495;-72
2022/04/14 01:42:02;;;;;;;26.20;20.30;;;;;;;;;;4970902;28;20451;-75
2022/04/14 01:44:28;;;;;;;35.90;22.47;;;;;;;;;;4956102;28;20473;-74
2022/04/14 01:46:54;;;;;;;33.33;23.40;;;;;;;;;;4956328;28;20453;-74
2022/04/14 01:49:20;;;;;;;34.93;21.70;;;;;;;;;;4956455;28;20409;-74
2022/04/14 01:51:48;;;;;;;35.33;21.97;;;;;;;;;;4956014;28;20438;-75
2022/04/14 01:54:14;;;;;;;37.47;22.73;;;;;;;;;;4956314;28;20489;-74
2022/04/14 01:56:41;;;;;;;32.00;21.23;;;;;;;;;;4955982;28;20527;-75
2022/04/14 01:59:07;;;;;;;30.03;21.53;;;;;;;;;;4956161;28;20419;-75
2022/04/14 02:01:33;;;;;;;31.30;20.03;;;;;;;;;;4955674;28;20446;-74
2022/04/14 02:04:02;;;;;;;33.63;21.53;;;;;;;;;;4970798;28;20465;-75
2022/04/14 02:06:28;;;;;;;33.47;23.83;;;;;;;;;;4955935;28;20405;-73
2022/04/14 02:08:54;;;;;;;38.00;24.33;;;;;;;;;;4955869;28;20519;-73
2022/04/14 02:11:20;;;;;;;45.03;27.87;;;;;;;;;;4955503;28;20467;-75
2022/04/14 02:13:46;;;;;;;41.70;26.17;;;;;;;;;;4955864;28;20818;-73
2022/04/14 02:16:12;;;;;;;41.43;25.57;;;;;;;;;;4955768;28;20427;-73
2022/04/14 02:18:38;;;;;;;42.53;27.43;;;;;;;;;;4970014;28;20466;-74
2022/04/14 02:21:04;;;;;;;39.57;27.40;;;;;;;;;;4955138;28;20440;-73
2022/04/14 02:23:31;;;;;;;43.40;27.53;;;;;;;;;;4955544;28;20525;-75
2022/04/14 02:25:56;;;;;;;36.73;26.60;;;;;;;;;;4955779;28;20449;-74
2022/04/14 02:28:22;;;;;;;47.67;29.27;;;;;;;;;;4955586;28;20466;-75
2022/04/14 02:30:48;;;;;;;36.53;24.90;;;;;;;;;;4969872;28;20416;-74
2022/04/14 02:33:15;;;;;;;41.63;28.43;;;;;;;;;;4955483;28;20795;-73
2022/04/14 02:35:41;;;;;;;39.47;26.60;;;;;;;;;;4955551;28;20427;-75
2022/04/14 02:38:07;;;;;;;43.20;27.87;;;;;;;;;;4955685;28;20423;-72
2022/04/14 02:40:33;;;;;;;46.80;30.67;;;;;;;;;;4955305;28;20415;-75
2022/04/14 02:42:59;;;;;;;45.40;27.13;;;;;;;;;;4955280;28;20957;-73
2022/04/14 02:45:26;;;;;;;40.07;26.50;;;;;;;;;;4970078;28;20449;-73
2022/04/14 02:47:52;;;;;;;43.43;27.57;;;;;;;;;;4970296;28;20787;-75
2022/04/14 02:50:20;;;;;;;43.10;26.83;;;;;;;;;;4954995;28;20425;-74
2022/04/14 02:52:46;;;;;;;43.27;28.77;;;;;;;;;;4955183;28;20431;-74
2022/04/14 02:55:12;;;;;;;48.43;29.60;;;;;;;;;;4955148;28;21246;-75
2022/04/14 02:57:38;;;;;;;37.90;28.23;;;;;;;;;;4955142;28;20419;-73
2022/04/14 03:00:06;;;;;;;38.73;27.30;;;;;;;;;;4955061;28;20425;-75
2022/04/14 03:02:32;;;;;;;37.40;27.03;;;;;;;;;;4954800;28;20437;-73
2022/04/14 03:04:58;;;;;;;43.70;27.50;;;;;;;;;;4955052;28;20499;-73
2022/04/14 03:07:24;;;;;;;44.47;29.93;;;;;;;;;;4955027;28;20413;-75
2022/04/14 03:09:51;;;;;;;48.03;30.23;;;;;;;;;;4955021;28;20415;-75
2022/04/14 03:12:17;;;;;;;48.90;30.37;;;;;;;;;;4954744;28;20544;-74
2022/04/14 03:14:43;;;;;;;51.90;31.23;;;;;;;;;;4969820;28;20474;-75
2022/04/14 03:17:09;;;;;;;44.33;29.90;;;;;;;;;;4954854;28;20914;-74
2022/04/14 03:19:36;;;;;;;48.00;29.50;;;;;;;;;;4969844;28;20423;-74
2022/04/14 03:22:02;;;;;;;48.63;31.53;;;;;;;;;;4954744;28;20443;-75
2022/04/14 03:24:28;;;;;;;42.53;29.43;;;;;;;;;;4954953;28;20449;-72
2022/04/14 03:26:54;;;;;;;49.43;31.00;;;;;;;;;;4955031;28;20412;-74
2022/04/14 03:29:20;;;;;;;52.30;32.53;;;;;;;;;;4969895;28;20425;-74
2022/04/14 03:31:46;;;;;;;52.60;31.63;;;;;;;;;;4957546;28;20441;-73
2022/04/14 03:34:12;;;;;;;46.93;31.50;;;;;;;;;;4958840;28;20423;-73
2022/04/14 03:36:38;;;;;;;42.93;30.40;;;;;;;;;;4958851;28;20415;-75
2022/04/14 03:39:04;;;;;;;44.77;29.33;;;;;;;;;;4958750;28;20405;-73
2022/04/14 03:41:30;;;;;;;45.70;30.10;;;;;;;;;;4958108;28;20504;-73
2022/04/14 03:43:57;;;;;;;42.30;31.50;;;;;;;;;;4958426;28;20475;-73
2022/04/14 03:46:23;;;;;;;40.87;29.30;;;;;;;;;;4958345;28;20443;-74
2022/04/14 03:48:49;;;;;;;48.10;31.80;;;;;;;;;;4958472;28;20451;-72
2022/04/14 03:51:15;;;;;;;49.93;30.30;;;;;;;;;;4958139;28;20453;-73
2022/04/14 03:53:42;;;;;;;51.27;33.37;;;;;;;;;;4958538;28;20775;-73
2022/04/14 03:56:07;;;;;;;50.20;31.10;;;;;;;;;;4958468;28;20883;-75
2022/04/14 03:58:33;;;;;;;46.77;31.03;;;;;;;;;;4958178;28;20420;-74
2022/04/14 04:00:59;;;;;;;56.30;35.10;;;;;;;;;;4958043;28;20424;-72
2022/04/14 04:03:25;;;;;;;57.03;33.73;;;;;;;;;;4958106;28;20482;-73
2022/04/14 04:05:52;;;;;;;50.03;34.30;;;;;;;;;;4958128;28;20413;-72
2022/04/14 04:08:18;;;;;;;55.27;34.27;;;;;;;;;;4958094;28;20408;-71
2022/04/14 04:10:44;;;;;;;55.27;32.80;;;;;;;;;;4957551;28;20917;-74
2022/04/14 04:13:10;;;;;;;50.43;34.23;;;;;;;;;;4957994;28;20415;-72
2022/04/14 04:15:36;;;;;;;51.30;34.70;;;;;;;;;;4957738;28;20549;-72
2022/04/14 04:18:04;;;;;;;58.70;36.47;;;;;;;;;;4957815;28;20431;-72
2022/04/14 04:20:30;;;;;;;49.07;34.23;;;;;;;;;;4957445;28;20415;-72
2022/04/14 04:22:56;;;;;;;57.87;34.57;;;;;;;;;;4957645;28;20439;-71
2022/04/14 04:25:22;;;;;;;53.83;32.77;;;;;;;;;;4957841;28;20420;-73
2022/04/14 04:27:48;;;;;;;57.00;36.07;;;;;;;;;;4972648;28;20860;-73
2022/04/14 04:30:14;;;;;;;56.50;34.10;;;;;;;;;;4972382;28;20466;-72
2022/04/14 04:32:41;;;;;;;51.07;34.20;;;;;;;;;;4957599;28;20464;-71
2022/04/14 04:35:07;;;;;;;63.67;37.47;;;;;;;;;;4957655;28;20430;-75
2022/04/14 04:37:33;;;;;;;57.67;35.63;;;;;;;;;;4957561;28;20812;-72
2022/04/14 04:39:59;;;;;;;60.60;37.67;;;;;;;;;;4958413;28;20443;-72
2022/04/14 04:42:25;;;;;;;63.30;36.83;;;;;;;;;;4956776;28;20443;-74
2022/04/14 04:44:52;;;;;;;53.03;34.10;;;;;;;;;;4957787;28;20853;-71
2022/04/14 04:47:20;;;;;;;63.83;36.47;;;;;;;;;;4957495;28;20900;-73
2022/04/14 04:49:46;;;;;;;66.27;37.90;;;;;;;;;;4957219;28;20415;-74
2022/04/14 04:52:12;;;;;;;65.43;38.10;;;;;;;;;;4956875;28;20439;-75
2022/04/14 04:54:38;;;;;;;78.77;42.27;;;;;;;;;;4957182;28;20466;-72
2022/04/14 04:57:05;;;;;;;68.00;41.70;;;;;;;;;;4957171;28;20964;-76
2022/04/14 04:59:31;;;;;;;65.87;37.47;;;;;;;;;;4957253;28;20509;-74
2022/04/14 05:01:57;;;;;;;64.77;39.00;;;;;;;;;;4956628;28;20442;-73
2022/04/14 05:04:23;;;;;;;73.40;40.53;;;;;;;;;;4956956;28;20484;-72
2022/04/14 05:06:49;;;;;;;82.00;40.63;;;;;;;;;;4957208;28;20408;-74
2022/04/14 05:09:16;;;;;;;75.40;42.20;;;;;;;;;;4957005;28;20411;-73
2022/04/14 05:11:42;;;;;;;68.67;37.63;;;;;;;;;;4971168;28;20521;-74
2022/04/14 05:14:09;;;;;;;77.57;41.60;;;;;;;;;;4956837;28;20852;-74
2022/04/14 05:16:35;;;;;;;78.47;43.50;;;;;;;;;;4956868;28;20428;-73
2022/04/14 05:19:01;;;;;;;82.60;42.43;;;;;;;;;;4956901;28;20474;-72
2022/04/14 05:21:27;;;;;;;69.33;40.90;;;;;;;;;;4956426;28;20449;-74
2022/04/14 05:23:53;;;;;;;75.17;39.27;;;;;;;;;;4956563;28;20472;-74
2022/04/14 05:26:19;;;;;;;74.77;39.60;;;;;;;;;;4956548;28;21210;-74
2022/04/14 05:28:45;;;;;;;74.17;42.07;;;;;;;;;;4971530;28;20421;-75
2022/04/14 05:31:11;;;;;;;71.60;40.20;;;;;;;;;;4971221;28;20777;-73
2022/04/14 05:33:37;;;;;;;64.73;38.40;;;;;;;;;;4956788;28;20886;-73
2022/04/14 05:36:03;;;;;;;72.20;38.70;;;;;;;;;;4956732;28;20437;-72
2022/04/14 05:38:29;;;;;;;76.90;40.73;;;;;;;;;;4956635;28;20420;-74
2022/04/14 05:40:56;;;;;;;72.57;38.87;;;;;;;;;;4956269;28;20421;-74
2022/04/14 05:43:25;;;;;;;78.00;41.33;;;;;;;;;;4956255;28;20465;-75
2022/04/14 05:45:51;;;;;;;81.53;42.70;;;;;;;;;;4956318;28;20450;-74
2022/04/14 05:48:17;;;;;;;80.00;42.87;;;;;;;;;;4956356;28;20417;-72
2022/04/14 05:50:44;;;;;;;83.20;41.13;;;;;;;;;;4955948;28;20407;-75
2022/04/14 05:53:11;;;;;;;77.87;40.83;;;;;;;;;;4955559;28;20793;-72
2022/04/14 05:55:37;;;;;;;70.93;40.23;;;;;;;;;;4956125;28;20433;-75
2022/04/14 05:58:06;;;;;;;83.50;43.50;;;;;;;;;;4956131;28;20869;-73
2022/04/14 06:00:33;;;;;;;82.43;44.80;;;;;;;;;;4955771;28;20799;-73
2022/04/14 06:02:59;;;;;;;83.77;43.10;;;;;;;;;;4955912;28;20430;-73
2022/04/14 06:05:26;;;;;;;75.87;41.17;;;;;;;;;;4956076;28;20961;-75
2022/04/14 06:07:52;;;;;;;79.10;42.07;;;;;;;;;;4956092;28;20780;-73
2022/04/14 06:10:18;;;;;;;74.20;41.50;;;;;;;;;;4970228;28;20429;-72
2022/04/14 06:12:45;;;;;;;78.40;42.30;;;;;;;;;;4955727;28;20442;-74
2022/04/14 06:15:11;;;;;;;82.07;39.70;;;;;;;;;;4955757;28;20502;-75
2022/04/14 06:17:37;;;;;;;79.63;43.80;;;;;;;;;;4955771;28;20824;-72
2022/04/14 06:20:03;;;;;;;87.40;43.00;;;;;;;;;;4955657;28;20470;-73
2022/04/14 06:22:29;;;;;;;86.50;44.20;;;;;;;;;;4955179;28;20831;-71
2022/04/14 06:24:58;;;;;;;89.27;43.80;;;;;;;;;;4955480;28;20468;-75
2022/04/14 06:27:24;;;;;;;78.60;41.87;;;;;;;;;;4970387;28;20784;-73
2022/04/14 06:29:50;;;;;;;78.27;41.20;;;;;;;;;;4955657;28;20479;-75
2022/04/14 06:32:16;;;;;;;65.30;39.80;;;;;;;;;;4955342;28;20478;-72
2022/04/14 06:34:42;;;;;;;71.70;40.67;;;;;;;;;;4955444;28;20426;-75
2022/04/14 06:37:07;;;;;;;68.90;41.33;;;;;;;;;;4955530;28;20810;-74
2022/04/14 06:39:33;;;;;;;69.27;38.57;;;;;;;;;;4955403;28;20436;-72
2022/04/14 06:41:59;;;;;;;63.90;37.40;;;;;;;;;;4955001;28;20500;-72
2022/04/14 06:44:25;;;;;;;64.43;39.37;;;;;;;;;;4955278;28;20985;-74
2022/04/14 06:46:51;;;;;;;63.13;38.20;;;;;;;;;;4955304;28;20444;-75
2022/04/14 06:49:17;;;;;;;63.07;38.17;;;;;;;;;;4970202;28;20955;-73
2022/04/14 06:51:43;;;;;;;59.30;34.80;;;;;;;;;;4954977;28;20437;-74
2022/04/14 06:54:09;;;;;;;57.27;34.60;;;;;;;;;;4955301;28;20990;-74
2022/04/14 06:56:35;;;;;;;56.73;33.87;;;;;;;;;;4955107;28;20502;-72
2022/04/14 06:59:01;;;;;;;52.63;33.63;;;;;;;;;;4955148;28;20465;-74
2022/04/14 07:01:27;;;;;;;52.87;32.67;;;;;;;;;;4954650;28;20451;-74
2022/04/14 07:03:53;;;;;;;49.00;31.80;;;;;;;;;;4955083;28;20830;-73
2022/04/14 07:06:19;;;;;;;42.90;28.27;;;;;;;;;;4954956;28;20419;-74
2022/04/14 07:08:45;;;;;;;42.53;29.23;;;;;;;;;;4954931;28;20423;-73
2022/04/14 07:11:12;;;;;;;42.17;28.77;;;;;;;;;;4954525;28;20429;-73
2022/04/14 07:13:38;;;;;;;41.90;27.33;;;;;;;;;;4955059;28;20416;-75
2022/04/14 07:16:04;;;;;;;44.70;29.03;;;;;;;;;;4955204;28;20396;-74
2022/04/14 07:18:30;;;;;;;39.07;26.83;;;;;;;;;;4954949;28;20413;-74
2022/04/14 07:20:56;;;;;;;41.43;27.60;;;;;;;;;;4969252;28;20913;-73
2022/04/14 07:23:23;;;;;;;38.00;26.20;;;;;;;;;;4954738;28;20501;-74
2022/04/14 07:25:49;;;;;;;41.77;27.43;;;;;;;;;;4954931;28;20615;-73
2022/04/14 07:28:15;;;;;;;37.83;26.67;;;;;;;;;;4954873;28;20416;-71
2022/04/14 07:30:42;;;;;;;32.50;23.87;;;;;;;;;;4954420;28;20413;-73
2022/04/14 07:33:08;;;;;;;35.47;24.70;;;;;;;;;;4954503;28;20436;-74
2022/04/14 07:35:34;;;;;;;39.07;24.33;;;;;;;;;;4954917;28;20417;-72
2022/04/14 07:38:00;;;;;;;33.27;22.70;;;;;;;;;;4969721;28;20419;-75
2022/04/14 07:40:26;;;;;;;32.10;23.53;;;;;;;;;;4954584;28;20413;-73
2022/04/14 07:42:55;;;;;;;38.27;24.57;;;;;;;;;;4954924;28;20462;-74
2022/04/14 07:45:21;;;;;;;35.03;22.03;;;;;;;;;;4954669;28;20459;-73
2022/04/14 07:47:47;;;;;;;33.47;22.97;;;;;;;;;;4954851;28;20511;-72
2022/04/14 07:50:14;;;;;;;29.67;21.40;;;;;;;;;;4954436;28;20409;-73
2022/04/14 07:53:07;;;;;;;33.00;21.30;;;;;;;;;;4954553;28;20433;-74
2022/04/14 07:55:33;;;;;;;32.30;20.13;;;;;;;;;;4955159;28;20887;-74
2022/04/14 07:58:07;;;;;;;27.30;19.20;;;;;;;;;;4954645;28;20511;-74
2022/04/14 08:00:33;;;;;;;22.67;17.83;;;;;;;;;;4954348;28;20419;-72
2022/04/14 08:03:01;;;;;;;24.13;17.67;;;;;;;;;;4954505;28;20440;-72
2022/04/14 08:05:34;;;;;;;19.57;15.30;;;;;;;;;;4954242;28;20877;-74
2022/04/14 08:08:00;;;;;;;18.27;12.90;;;;;;;;;;4969255;28;20417;-74
2022/04/14 08:10:27;;;;;;;13.33;10.70;;;;;;;;;;4969084;28;20929;-74
2022/04/14 08:12:53;;;;;;;12.43;9.70;;;;;;;;;;4954448;28;20436;-74
2022/04/14 08:15:19;;;;;;;13.67;9.80;;;;;;;;;;4954480;28;20448;-74
2022/04/14 08:17:45;;;;;;;11.10;9.83;;;;;;;;;;4956953;28;20475;-72
2022/04/14 08:20:14;;;;;;;14.97;11.03;;;;;;;;;;4957519;28;20421;-71
2022/04/14 08:23:06;;;;;;;19.00;13.07;;;;;;;;;;4957657;28;20437;-72
2022/04/14 08:25:33;;;;;;;13.70;11.67;;;;;;;;;;4958114;28;20864;-75
2022/04/14 08:28:00;;;;;;;17.53;13.93;;;;;;;;;;4957662;28;20492;-72
2022/04/14 08:30:28;;;;;;;14.53;13.13;;;;;;;;;;4957327;28;20397;-72
2022/04/14 08:32:54;;;;;;;14.40;12.90;;;;;;;;;;4972433;28;20444;-74
2022/04/14 08:35:21;;;;;;;13.10;11.73;;;;;;;;;;4957681;28;20397;-74
2022/04/14 08:37:47;;;;;;;15.00;11.60;;;;;;;;;;4957624;28;20423;-72
2022/04/14 08:40:14;;;;;;;16.00;13.03;;;;;;;;;;4957175;28;20451;-74
2022/04/14 08:42:41;;;;;;;17.60;13.87;;;;;;;;;;4957522;28;20428;-72
2022/04/14 08:45:09;;;;;;;17.37;14.50;;;;;;;;;;4957430;28;20475;-74
2022/04/14 08:47:36;;;;;;;22.93;15.70;;;;;;;;;;4957333;28;20877;-70
2022/04/14 08:50:03;;;;;;;25.20;17.90;;;;;;;;;;4957407;28;20845;-75
2022/04/14 08:52:29;;;;;;;22.20;18.20;;;;;;;;;;4956972;28;20441;-75
2022/04/14 08:54:55;;;;;;;20.77;17.50;;;;;;;;;;4957345;28;20444;-75
2022/04/14 08:57:22;;;;;;;21.00;18.37;;;;;;;;;;4957326;28;20769;-74
2022/04/14 08:59:50;;;;;;;26.70;16.97;;;;;;;;;;4972158;28;20433;-74
2022/04/14 09:02:21;;;;;;;24.30;17.33;;;;;;;;;;4956765;28;20500;-73
2022/04/14 09:04:49;;;;;;;30.50;18.70;;;;;;;;;;4957219;28;20853;-74
2022/04/14 09:07:15;;;;;;;22.77;18.83;;;;;;;;;;4957060;28;20413;-74
2022/04/14 09:09:41;;;;;;;23.23;17.60;;;;;;;;;;4956991;28;20434;-74
2022/04/14 09:12:08;;;;;;;22.47;18.20;;;;;;;;;;4956476;28;20433;-74
2022/04/14 09:14:34;;;;;;;23.03;19.50;;;;;;;;;;4956926;28;20395;-73
2022/04/14 09:17:02;;;;;;;19.87;17.50;;;;;;;;;;4956944;28;20952;-73
2022/04/14 09:19:30;;;;;;;20.90;16.27;;;;;;;;;;4956905;28;20387;-72
2022/04/14 09:22:07;;;;;;;23.97;19.17;;;;;;;;;;4971025;28;20441;-72
2022/04/14 09:24:48;;;;;;;22.87;17.77;;;;;;;;;;4956600;28;20523;-74
2022/04/14 09:27:34;;;;;;;23.43;17.97;;;;;;;;;;4956373;28;20383;-73
2022/04/14 09:30:03;;;;;;;23.30;18.80;;;;;;;;;;4970948;28;20409;-74
2022/04/14 09:32:32;;;;;;;21.20;18.40;;;;;;;;;;4956152;28;20429;-73
2022/04/14 09:34:59;;;;;;;23.93;20.37;;;;;;;;;;4956813;28;20409;-73
2022/04/14 09:37:26;;;;;;;24.40;18.57;;;;;;;;;;4971222;28;20432;-73
2022/04/14 09:40:02;;;;;;;24.67;19.70;;;;;;;;;;4971284;28;20429;-74
2022/04/14 09:42:32;;;;;;;22.30;18.53;;;;;;;;;;4956090;28;20436;-74
2022/04/14 09:45:18;;;;;;;24.10;19.27;;;;;;;;;;4956436;28;20443;-75
2022/04/14 09:47:44;;;;;;;26.93;19.50;;;;;;;;;;4956634;28;20417;-73
2022/04/14 09:50:29;;;;;;;23.90;18.60;;;;;;;;;;4970776;28;20833;-74
2022/04/14 09:52:59;;;;;;;20.20;16.47;;;;;;;;;;4956342;28;20435;-73
2022/04/14 09:55:25;;;;;;;20.37;16.10;;;;;;;;;;4956202;28;20436;-73
2022/04/14 09:58:08;;;;;;;21.13;16.87;;;;;;;;;;4956251;28;20743;-73
2022/04/14 10:00:37;;;;;;;24.90;17.43;;;;;;;;;;4955672;28;20413;-74
2022/04/14 10:03:17;;;;;;;19.03;16.60;;;;;;;;;;4955925;28;20440;-74
2022/04/14 10:05:43;;;;;;;18.03;15.13;;;;;;;;;;4955983;28;20416;-74
2022/04/14 10:08:09;;;;;;;22.57;16.90;;;;;;;;;;4956167;28;20732;-74
2022/04/14 10:10:39;;;;;;;20.57;17.87;;;;;;;;;;4955643;28;20758;-74
2022/04/14 10:13:06;;;;;;;19.03;15.70;;;;;;;;;;4955915;28;20444;-75
2022/04/14 10:15:36;;;;;;;19.03;15.40;;;;;;;;;;4956059;28;20800;-73
2022/04/14 10:18:06;;;;;;;20.00;16.43;;;;;;;;;;4955750;28;20444;-73
2022/04/14 10:20:33;;;;;;;19.73;15.83;;;;;;;;;;4955170;28;20424;-74
2022/04/14 10:23:02;;;;;;;16.73;15.03;;;;;;;;;;4955477;28;20437;-72
2022/04/14 10:25:29;;;;;;;14.67;13.03;;;;;;;;;;4955614;28;20436;-75
2022/04/14 10:27:57;;;;;;;14.00;12.50;;;;;;;;;;4955643;28;20448;-74
2022/04/14 10:30:23;;;;;;;14.77;12.30;;;;;;;;;;4955064;28;20410;-74
2022/04/14 10:32:49;;;;;;;13.83;11.97;;;;;;;;;;4955350;28;20424;-73
2022/04/14 10:35:16;;;;;;;13.87;12.57;;;;;;;;;;4955454;28;20413;-73
2022/04/14 10:37:43;;;;;;;15.40;11.80;;;;;;;;;;4955470;28;20417;-74
2022/04/14 10:40:10;;;;;;;15.00;10.43;;;;;;;;;;4969542;28;20392;-75
2022/04/14 10:42:37;;;;;;;12.60;11.30;;;;;;;;;;4955249;28;20445;-73
2022/04/14 10:45:15;;;;;;;14.00;12.50;;;;;;;;;;4955299;28;20487;-74
2022/04/14 10:47:44;;;;;;;12.10;10.90;;;;;;;;;;4955319;28;20409;-73
2022/04/14 10:50:23;;;;;;;11.57;10.10;;;;;;;;;;4955068;28;20421;-73
2022/04/14 10:53:08;;;;;;;13.40;10.57;;;;;;;;;;4955156;28;20432;-74
2022/04/14 10:55:35;;;;;;;11.97;10.20;;;;;;;;;;4955178;28;20788;-74
2022/04/14 10:58:01;;;;;;;11.20;8.80;;;;;;;;;;4955346;28;20417;-74
2022/04/14 11:00:30;;;;;;;11.13;10.00;;;;;;;;;;4954968;28;20902;-73
2022/04/14 11:03:02;;;;;;;14.40;11.57;;;;;;;;;;4955152;28;20976;-73
2022/04/14 11:05:39;;;;;;;13.40;9.77;;;;;;;;;;4955090;28;20409;-73
2022/04/14 11:08:24;;;;;;;14.70;11.47;;;;;;;;;;4955201;28;20500;-73
2022/04/14 11:11:02;;;;;;;11.77;10.50;;;;;;;;;;4954557;28;20420;-74
2022/04/14 11:13:57;;;;;;;14.40;9.97;;;;;;;;;;4955049;28;20416;-74
2022/04/14 11:16:41;;;;;;;11.83;10.60;;;;;;;;;;4958204;28;20416;-72
2022/04/14 11:19:24;;;;;;;12.37;10.93;;;;;;;;;;4954792;28;20466;-74
2022/04/14 11:22:08;;;;;;;12.90;11.50;;;;;;;;;;4954458;28;20436;-73
2022/04/14 11:24:34;;;;;;;19.07;12.80;;;;;;;;;;4954890;28;20465;-73
2022/04/14 11:27:17;;;;;;;16.37;13.83;;;;;;;;;;4954731;28;20409;-74
2022/04/14 11:29:44;;;;;;;16.33;14.63;;;;;;;;;;4954944;28;20413;-72
2022/04/14 11:32:10;;;;;;;18.00;13.93;;;;;;;;;;4954524;28;20437;-73
2022/04/14 11:34:40;;;;;;;14.20;12.70;;;;;;;;;;4954806;28;20431;-72
2022/04/14 11:37:26;;;;;;;15.57;11.83;;;;;;;;;;4954706;28;20421;-74
2022/04/14 11:40:10;;;;;;;16.93;13.00;;;;;;;;;;4954811;28;20788;-74
2022/04/14 11:42:36;;;;;;;15.30;13.47;;;;;;;;;;4954679;28;20428;-71
2022/04/14 11:45:02;;;;;;;13.70;10.73;;;;;;;;;;4954352;28;20801;-74
2022/04/14 11:47:29;;;;;;;11.20;9.73;;;;;;;;;;4954887;28;20427;-73
2022/04/14 11:49:55;;;;;;;14.23;10.17;;;;;;;;;;4954779;28;20767;-74
2022/04/14 11:52:24;;;;;;;12.87;11.00;;;;;;;;;;4956655;28;20433;-73
2022/04/14 11:54:50;;;;;;;11.20;10.00;;;;;;;;;;4958460;28;20456;-73
2022/04/14 11:57:20;;;;;;;13.97;11.73;;;;;;;;;;4958219;28;20514;-73
2022/04/14 11:59:56;;;;;;;13.90;11.50;;;;;;;;;;4973094;28;20448;-74
2022/04/14 12:02:26;;;;;;;14.27;12.77;;;;;;;;;;4957877;28;20428;-71
2022/04/14 12:04:53;;;;;;;16.47;13.47;;;;;;;;;;4958181;28;20464;-71
2022/04/14 12:07:20;;;;;;;20.53;16.73;;;;;;;;;;4957955;28;20409;-74
2022/04/14 12:09:46;;;;;;;15.40;13.80;;;;;;;;;;4958107;28;20565;-74
2022/04/14 12:12:12;;;;;;;16.63;13.80;;;;;;;;;;4957813;28;20488;-72
2022/04/14 12:14:48;;;;;;;17.30;13.57;;;;;;;;;;4958161;28;20412;-72
2022/04/14 12:17:16;;;;;;;15.33;11.60;;;;;;;;;;4957917;28;20499;-72
2022/04/14 12:19:56;;;;;;;15.00;12.50;;;;;;;;;;4957858;28;20421;-74
2022/04/14 12:22:23;;;;;;;15.50;11.70;;;;;;;;;;4957537;28;20455;-73
2022/04/14 12:24:54;;;;;;;13.47;10.57;;;;;;;;;;4957848;28;20520;-74
2022/04/14 12:27:24;;;;;;;16.13;11.90;;;;;;;;;;4957724;28;20458;-71
2022/04/14 12:29:58;;;;;;;12.53;11.33;;;;;;;;;;4957901;28;20432;-74
2022/04/14 12:32:25;;;;;;;14.20;11.93;;;;;;;;;;4957375;28;20806;-73
2022/04/14 12:34:51;;;;;;;12.37;11.10;;;;;;;;;;4957552;28;20905;-73
2022/04/14 12:37:19;;;;;;;13.47;10.40;;;;;;;;;;4957582;28;20471;-72
2022/04/14 12:39:55;;;;;;;10.93;8.93;;;;;;;;;;4972168;28;20429;-71
2022/04/14 12:42:25;;;;;;;15.03;11.20;;;;;;;;;;4957195;28;20411;-71
2022/04/14 12:44:51;;;;;;;15.17;12.20;;;;;;;;;;4972212;28;20482;-72
2022/04/14 12:47:17;;;;;;;13.27;11.87;;;;;;;;;;4957618;28;20410;-72
2022/04/14 12:49:43;;;;;;;16.37;13.07;;;;;;;;;;4957393;28;20471;-72
2022/04/14 12:52:09;;;;;;;17.63;11.60;;;;;;;;;;4972006;28;20536;-74
2022/04/14 12:54:45;;;;;;;11.73;10.33;;;;;;;;;;4957208;28;20431;-73
2022/04/14 12:57:18;;;;;;;13.93;12.03;;;;;;;;;;4957219;28;20921;-72
2022/04/14 13:00:00;;;;;;;13.20;11.13;;;;;;;;;;4957035;28;20413;-74
2022/04/14 13:02:26;;;;;;;14.13;11.40;;;;;;;;;;4956841;28;20912;-72
2022/04/14 13:05:04;;;;;;;13.13;10.00;;;;;;;;;;4957297;28;20465;-73
2022/04/14 13:07:30;;;;;;;9.87;8.87;;;;;;;;;;4957320;28;20384;-73
2022/04/14 13:10:00;;;;;;;9.57;8.30;;;;;;;;;;4957181;28;20444;-74
2022/04/14 13:12:42;;;;;;;12.70;9.77;;;;;;;;;;4956810;28;20431;-74
2022/04/14 13:15:11;;;;;;;9.73;8.73;;;;;;;;;;4957181;28;20420;-73
2022/04/14 13:17:38;;;;;;;16.10;11.47;;;;;;;;;;4957003;28;20417;-72
2022/04/14 13:20:08;;;;;;;15.27;12.47;;;;;;;;;;4956807;28;21053;-72
2022/04/14 13:22:34;;;;;;;16.30;10.80;;;;;;;;;;4971327;28;20957;-74
2022/04/14 13:25:00;;;;;;;13.33;11.63;;;;;;;;;;4956806;28;20527;-74
2022/04/14 13:27:26;;;;;;;12.10;9.70;;;;;;;;;;4956718;28;20421;-72
2022/04/14 13:29:52;;;;;;;15.63;12.67;;;;;;;;;;4956537;28;20417;-72
2022/04/14 13:32:18;;;;;;;14.60;12.67;;;;;;;;;;4956180;28;20403;-72
2022/04/14 13:34:44;;;;;;;16.23;11.50;;;;;;;;;;4956455;28;20511;-73
2022/04/14 13:37:10;;;;;;;14.70;12.33;;;;;;;;;;4956568;28;20818;-73
2022/04/14 13:39:36;;;;;;;17.23;12.23;;;;;;;;;;4956513;28;20751;-74
2022/04/14 13:42:03;;;;;;;14.87;12.40;;;;;;;;;;4955885;28;20503;-73
2022/04/14 13:44:29;;;;;;;14.60;10.00;;;;;;;;;;4956433;28;20490;-74
2022/04/14 13:46:56;;;;;;;15.73;10.63;;;;;;;;;;4956395;28;20421;-74
2022/04/14 13:49:22;;;;;;;11.83;9.70;;;;;;;;;;4956363;28;20813;-72
2022/04/14 13:51:48;;;;;;;12.67;11.37;;;;;;;;;;4956322;28;20461;-73
2022/04/14 13:54:14;;;;;;;11.20;9.67;;;;;;;;;;4971136;28;20464;-72
2022/04/14 13:56:40;;;;;;;11.00;8.67;;;;;;;;;;4956271;28;20448;-73
2022/04/14 13:59:06;;;;;;;12.23;10.87;;;;;;;;;;4956194;28;20425;-72
2022/04/14 14:01:32;;;;;;;13.60;11.47;;;;;;;;;;4955901;28;20448;-72
2022/04/14 14:03:59;;;;;;;12.20;10.60;;;;;;;;;;4956252;28;20492;-73
2022/04/14 14:06:25;;;;;;;13.23;10.63;;;;;;;;;;4956255;28;20425;-74
2022/04/14 14:08:51;;;;;;;17.03;13.67;;;;;;;;;;4956238;28;20380;-73
2022/04/14 14:11:17;;;;;;;12.90;11.53;;;;;;;;;;4955657;28;20437;-72
2022/04/14 14:13:44;;;;;;;16.30;12.50;;;;;;;;;;4955490;28;20901;-74
2022/04/14 14:16:10;;;;;;;14.10;12.47;;;;;;;;;;4970541;28;20861;-72
2022/04/14 14:18:36;;;;;;;14.70;11.73;;;;;;;;;;4955974;28;20425;-73
2022/04/14 14:21:02;;;;;;;15.80;12.53;;;;;;;;;;4955515;28;20507;-72
2022/04/14 14:23:28;;;;;;;15.23;12.20;;;;;;;;;;4955594;28;20509;-73